Terminal Aerodrome Forecast
Issued by NWS

Home | Current Version | Previous Version | Graphics & Text | Print | Product List | Glossary On
Versions: 1 2 3 4 5 6 7 8 9 10 11 12 13 14 15 16 17 18 19 20 21
000
FTUS43 KBIS 310700 AAA
TAFMOT
TAF AMD
KMOT 310755Z 3108/0106 35011KT P6SM BKN009
     FM311300 04013KT 4SM -SN OVC010=

USA.gov is the U.S. government's official web portal to all federal, state and local government web resources and services.